Time;durP1;ratioP1;P1;durP2;ratioP2;P2;SDS_P1;SDS_P2;PMS_P1;PMS_P2;Temp;Humidity;BMP_temperature;BMP_pressure;BME280_temperature;BME280_humidity;BME280_pressure;Samples;Min_cycle;Max_cycle;Signal;HPM_P1;HPM_P2
2021/11/26 00:01:03;;;;;;;42.33;15.55;;;;;;;-1.96;100.00;94737.03;5008295;28;20046;-52
2021/11/26 00:03:32;;;;;;;44.45;15.82;;;;;;;-2.03;100.00;94731.31;5001929;28;20046;-52
2021/11/26 00:05:59;;;;;;;41.63;15.85;;;;;;;-2.00;100.00;94730.75;4997422;28;21209;-52
2021/11/26 00:08:26;;;;;;;36.08;14.02;;;;;;;-2.15;100.00;94719.22;5005532;28;20376;-48
2021/11/26 00:10:53;;;;;;;39.45;13.80;;;;;;;-2.30;100.00;94711.44;5007002;28;20034;-48
2021/11/26 00:13:27;;;;;;;39.45;14.38;;;;;;;-2.18;100.00;94711.84;4999347;28;20057;-50
2021/11/26 00:16:02;;;;;;;42.55;14.23;;;;;;;-2.17;100.00;94717.94;5004882;28;20120;-51
2021/11/26 00:18:31;;;;;;;41.20;14.48;;;;;;;-2.32;100.00;94718.88;5003927;28;20045;-51
2021/11/26 00:20:59;;;;;;;41.53;13.93;;;;;;;-1.89;100.00;94695.84;5003774;28;20038;-51
2021/11/26 00:23:26;;;;;;;44.00;15.38;;;;;;;-1.82;100.00;94710.63;5005167;28;20130;-53
2021/11/26 00:25:53;;;;;;;35.72;13.23;;;;;;;-2.00;100.00;94709.53;5002715;28;20077;-53
2021/11/26 00:28:20;;;;;;;39.55;14.18;;;;;;;-1.73;100.00;94707.06;5004297;28;20136;-51
2021/11/26 00:30:48;;;;;;;45.15;14.90;;;;;;;-1.94;100.00;94706.53;5007163;28;20567;-53
2021/11/26 00:33:15;;;;;;;42.63;15.65;;;;;;;-2.05;100.00;94701.63;5005165;28;20495;-49
2021/11/26 00:35:42;;;;;;;46.38;15.90;;;;;;;-2.12;100.00;94707.28;5006660;28;20439;-50
2021/11/26 00:38:09;;;;;;;45.72;15.32;;;;;;;-2.25;100.00;94708.72;5005993;28;20438;-51
2021/11/26 00:40:36;;;;;;;41.75;14.00;;;;;;;-1.90;100.00;94701.47;5004765;28;20041;-53
2021/11/26 00:43:03;;;;;;;43.88;14.88;;;;;;;-1.27;99.88;94711.78;5004214;28;20041;-51
2021/11/26 00:45:31;;;;;;;43.65;14.65;;;;;;;-2.09;100.00;94706.72;5005689;28;20471;-47
2021/11/26 00:47:58;;;;;;;47.88;15.05;;;;;;;-2.19;100.00;94706.81;5009364;28;20084;-51
2021/11/26 00:50:26;;;;;;;43.03;15.95;;;;;;;-2.28;100.00;94714.59;5003890;28;20125;-50
2021/11/26 00:52:53;;;;;;;41.75;14.75;;;;;;;-2.24;100.00;94706.88;5003119;28;20053;-51
2021/11/26 00:55:20;;;;;;;45.13;16.02;;;;;;;-2.33;100.00;94692.69;5002984;28;20056;-47
2021/11/26 00:57:47;;;;;;;38.72;13.98;;;;;;;-2.30;100.00;94705.38;5004094;28;20044;-52
2021/11/26 01:00:17;;;;;;;44.88;15.43;;;;;;;-2.21;100.00;94685.91;5003401;28;20041;-53
2021/11/26 01:02:44;;;;;;;40.38;14.48;;;;;;;-2.29;100.00;94691.03;5001037;28;20090;-52
2021/11/26 01:05:13;;;;;;;46.47;14.27;;;;;;;-1.93;100.00;94692.22;5006617;28;20132;-53
2021/11/26 01:07:41;;;;;;;48.78;15.95;;;;;;;-2.26;100.00;94688.63;5004250;28;20132;-53
2021/11/26 01:10:12;;;;;;;45.60;15.75;;;;;;;-1.98;100.00;94676.38;5007184;28;20068;-48
2021/11/26 01:12:39;;;;;;;49.05;16.63;;;;;;;-2.01;100.00;94679.59;5005322;28;20092;-51
2021/11/26 01:15:09;;;;;;;49.67;16.20;;;;;;;-1.94;100.00;94682.69;5010324;28;20070;-48
2021/11/26 01:17:41;;;;;;;47.28;15.02;;;;;;;-2.33;100.00;94679.44;5008095;28;20392;-50
2021/11/26 01:20:12;;;;;;;47.73;17.67;;;;;;;-2.42;100.00;94680.03;5007206;28;20042;-47
2021/11/26 01:22:39;;;;;;;53.97;16.67;;;;;;;-2.21;100.00;94667.38;5007347;28;20038;-50
2021/11/26 01:25:08;;;;;;;45.97;16.95;;;;;;;-2.29;100.00;94661.91;5004769;28;20045;-48
2021/11/26 01:27:36;;;;;;;51.70;17.38;;;;;;;-2.44;100.00;94652.25;5006126;28;20052;-51
2021/11/26 01:30:14;;;;;;;54.00;17.50;;;;;;;-2.09;100.00;94659.00;5007978;28;20132;-48
2021/11/26 01:32:42;;;;;;;52.47;17.40;;;;;;;-2.24;100.00;94648.56;5006161;28;20132;-50
2021/11/26 01:35:09;;;;;;;57.13;16.83;;;;;;;-2.40;100.00;94658.56;5005215;28;20041;-47
2021/11/26 01:37:36;;;;;;;51.15;16.85;;;;;;;-2.32;100.00;94649.22;5008847;28;20046;-47
2021/11/26 01:40:06;;;;;;;51.30;17.38;;;;;;;-2.42;100.00;94647.47;5010362;28;20046;-47
2021/11/26 01:42:34;;;;;;;61.08;18.13;;;;;;;-2.33;100.00;94650.28;5008989;28;20414;-48
2021/11/26 01:45:01;;;;;;;53.45;17.75;;;;;;;-2.36;100.00;94649.78;5006411;28;20046;-47
2021/11/26 01:47:28;;;;;;;55.05;16.52;;;;;;;-2.39;100.00;94646.91;5009298;28;20096;-50
2021/11/26 01:49:56;;;;;;;53.90;17.25;;;;;;;-2.06;100.00;94637.25;5003904;28;20125;-47
2021/11/26 01:52:23;;;;;;;50.40;17.00;;;;;;;-2.33;100.00;94629.09;5007988;28;20049;-48
2021/11/26 01:54:50;;;;;;;64.03;18.20;;;;;;;-2.47;100.00;94627.13;5004981;28;20046;-47
2021/11/26 01:57:18;;;;;;;59.00;18.75;;;;;;;-2.49;100.00;94612.59;4990469;28;20149;-50
2021/11/26 01:59:48;;;;;;;59.13;18.45;;;;;;;-2.38;100.00;94624.63;5006298;28;20129;-48
2021/11/26 02:02:16;;;;;;;58.28;18.17;;;;;;;-2.34;100.00;94615.03;4984277;28;20041;-49
2021/11/26 02:04:44;;;;;;;51.60;17.00;;;;;;;-2.37;100.00;94613.00;5003068;28;20510;-48
2021/11/26 02:07:12;;;;;;;64.63;18.30;;;;;;;-2.39;100.00;94615.13;5004398;28;20084;-51
2021/11/26 02:09:40;;;;;;;51.65;17.17;;;;;;;-2.43;100.00;94601.66;5010992;28;20038;-45
2021/11/26 02:12:07;;;;;;;56.70;18.48;;;;;;;-2.47;100.00;94600.66;5010504;28;20128;-52
2021/11/26 02:14:35;;;;;;;49.75;16.67;;;;;;;-2.33;100.00;94602.63;5012950;28;20084;-46
2021/11/26 02:17:03;;;;;;;56.00;14.85;;;;;;;-2.29;100.00;94601.75;5008949;28;20447;-46
2021/11/26 02:19:29;;;;;;;49.72;16.83;;;;;;;-2.46;100.00;94601.44;5011876;28;20041;-45
2021/11/26 02:21:56;;;;;;;52.58;17.00;;;;;;;-2.48;100.00;94596.41;5009496;28;20057;-54
2021/11/26 02:24:23;;;;;;;49.67;17.38;;;;;;;-2.22;100.00;94593.44;5004422;28;20048;-48
2021/11/26 02:26:51;;;;;;;55.47;16.58;;;;;;;-2.30;100.00;94600.19;5000869;28;20456;-46
2021/11/26 02:29:19;;;;;;;54.47;17.10;;;;;;;-2.48;100.00;94595.63;5005556;28;20042;-46
2021/11/26 02:31:47;;;;;;;58.80;18.52;;;;;;;-1.91;100.00;94581.38;5006750;28;20132;-51
2021/11/26 02:34:15;;;;;;;53.67;16.23;;;;;;;-2.07;100.00;94584.53;5006312;28;20410;-49
2021/11/26 02:36:42;;;;;;;56.08;18.45;;;;;;;-2.22;100.00;94590.81;4999591;28;20046;-49
2021/11/26 02:39:10;;;;;;;48.55;17.25;;;;;;;-2.40;100.00;94585.19;5010795;28;20053;-47
2021/11/26 02:41:42;;;;;;;56.30;17.65;;;;;;;-2.19;100.00;94579.63;5009306;28;22065;-45
2021/11/26 02:44:11;;;;;;;59.30;18.42;;;;;;;-1.96;100.00;94570.84;4994617;28;20133;-46
2021/11/26 02:46:38;;;;;;;53.53;16.90;;;;;;;-2.02;100.00;94573.84;5009011;28;20458;-47
2021/11/26 02:49:07;;;;;;;57.30;19.10;;;;;;;-2.30;100.00;94572.91;5011534;28;20069;-46
2021/11/26 02:51:34;;;;;;;57.58;19.75;;;;;;;-2.44;100.00;94578.91;5009428;28;20038;-46
2021/11/26 02:54:02;;;;;;;58.88;17.65;;;;;;;-2.46;100.00;94567.00;5009824;28;20129;-46
2021/11/26 02:56:29;;;;;;;57.95;16.42;;;;;;;-2.46;100.00;94559.84;5012460;28;20042;-47
2021/11/26 02:58:56;;;;;;;70.88;19.75;;;;;;;-2.41;100.00;94548.38;5007536;28;20057;-51
2021/11/26 03:01:24;;;;;;;60.58;18.27;;;;;;;-2.10;100.00;94540.84;5010384;28;20050;-52
2021/11/26 03:03:51;;;;;;;53.58;18.48;;;;;;;-1.83;100.00;94529.56;5008569;28;20434;-51
2021/11/26 03:06:18;;;;;;;58.97;17.88;;;;;;;-1.53;100.00;94528.31;5010788;28;20053;-51
2021/11/26 03:08:45;;;;;;;58.40;18.58;;;;;;;-1.87;100.00;94523.28;5011443;28;20160;-52
2021/11/26 03:11:12;;;;;;;51.67;18.35;;;;;;;-2.17;100.00;94535.91;5013252;28;20125;-48
2021/11/26 03:13:39;;;;;;;53.90;18.92;;;;;;;-2.40;100.00;94523.50;5006610;28;20048;-46
2021/11/26 03:16:06;;;;;;;60.97;16.67;;;;;;;-2.59;100.00;94521.59;5006152;28;20042;-49
2021/11/26 03:18:33;;;;;;;56.35;18.42;;;;;;;-2.49;100.00;94533.13;5011598;28;20373;-48
2021/11/26 03:21:00;;;;;;;54.40;17.00;;;;;;;-2.39;100.00;94525.84;5007564;28;20064;-47
2021/11/26 03:23:27;;;;;;;60.83;18.40;;;;;;;-2.32;100.00;94525.50;5009160;28;20046;-50
2021/11/26 03:25:54;;;;;;;63.15;19.45;;;;;;;-2.48;100.00;94524.13;5005796;28;20052;-50
2021/11/26 03:28:21;;;;;;;60.25;18.58;;;;;;;-1.82;100.00;94520.56;5011306;28;20045;-47
2021/11/26 03:30:49;;;;;;;63.67;20.08;;;;;;;-2.39;100.00;94520.53;5007152;28;20100;-47
2021/11/26 03:33:16;;;;;;;61.88;19.42;;;;;;;-2.53;100.00;94510.94;5006501;28;20084;-49
2021/11/26 03:35:43;;;;;;;71.15;18.33;;;;;;;-2.50;100.00;94511.16;5008513;28;20156;-50
2021/11/26 03:38:10;;;;;;;69.78;20.10;;;;;;;-2.49;100.00;94504.00;5011810;28;20408;-49
2021/11/26 03:40:38;;;;;;;70.28;21.00;;;;;;;-2.31;100.00;94508.53;5006892;28;20999;-47
2021/11/26 03:43:06;;;;;;;69.88;20.15;;;;;;;-2.62;100.00;94498.34;5004127;28;20136;-47
2021/11/26 03:45:33;;;;;;;62.53;20.45;;;;;;;-2.55;100.00;94502.50;5011084;28;20179;-47
2021/11/26 03:48:00;;;;;;;70.90;20.33;;;;;;;-2.46;100.00;94484.91;5012039;28;20060;-50
2021/11/26 03:50:29;;;;;;;74.80;20.42;;;;;;;-2.38;100.00;94484.25;5006495;28;20066;-51
2021/11/26 03:52:56;;;;;;;72.82;20.05;;;;;;;-2.57;100.00;94478.94;5009426;28;20073;-52
2021/11/26 03:55:30;;;;;;;73.70;20.48;;;;;;;-2.44;100.00;94477.44;5005045;28;20499;-51
2021/11/26 03:57:59;;;;;;;58.75;16.33;;;;;;;-2.50;100.00;94468.81;5009008;28;21877;-50
2021/11/26 04:00:26;;;;;;;76.55;19.58;;;;;;;-2.51;100.00;94463.78;5008367;28;20048;-52
2021/11/26 04:02:53;;;;;;;72.75;21.92;;;;;;;-2.38;100.00;94455.91;5006910;28;20050;-50
2021/11/26 04:05:20;;;;;;;74.55;20.67;;;;;;;-2.38;100.00;94461.19;5009573;28;20132;-49
2021/11/26 04:07:48;;;;;;;81.30;20.25;;;;;;;-2.47;100.00;94465.59;5010414;28;20407;-48
2021/11/26 04:10:16;;;;;;;70.45;19.73;;;;;;;-2.36;100.00;94476.81;5011383;28;20038;-50
2021/11/26 04:12:45;;;;;;;71.40;19.52;;;;;;;-2.39;100.00;94480.03;5004934;28;20046;-48
2021/11/26 04:15:14;;;;;;;75.32;20.38;;;;;;;-2.60;100.00;94476.84;5011711;28;20053;-49
2021/11/26 04:17:44;;;;;;;75.55;20.30;;;;;;;-2.56;100.00;94475.22;5007797;28;20042;-46
2021/11/26 04:20:13;;;;;;;84.75;23.67;;;;;;;-2.55;100.00;94473.38;5024679;28;20041;-52
2021/11/26 04:22:40;;;;;;;88.60;23.15;;;;;;;-2.42;100.00;94473.44;5005174;28;20052;-50
2021/11/26 04:25:10;;;;;;;84.38;22.27;;;;;;;-2.35;100.00;94470.44;4997601;28;20054;-51
2021/11/26 04:27:37;;;;;;;81.00;22.42;;;;;;;-2.39;100.00;94472.09;5006499;28;20042;-55
2021/11/26 04:30:06;;;;;;;79.90;21.02;;;;;;;-2.54;100.00;94467.78;5010228;28;20052;-52
2021/11/26 04:32:33;;;;;;;79.55;20.77;;;;;;;-2.49;100.00;94470.38;5002326;28;20862;-53
2021/11/26 04:35:00;;;;;;;81.63;21.33;;;;;;;-2.23;100.00;94460.19;5006043;28;20042;-53
2021/11/26 04:37:27;;;;;;;83.30;21.38;;;;;;;-2.31;100.00;94457.41;5008093;28;20077;-52
2021/11/26 04:39:54;;;;;;;80.70;19.92;;;;;;;-2.33;100.00;94452.41;5018878;23;20060;-50
2021/11/26 04:42:21;;;;;;;78.95;21.80;;;;;;;-2.25;100.00;94453.59;5011429;28;20048;-47
2021/11/26 04:44:48;;;;;;;82.25;20.50;;;;;;;-2.20;100.00;94451.69;5006575;28;20050;-50
2021/11/26 04:47:15;;;;;;;80.53;22.05;;;;;;;-2.37;100.00;94468.09;5009658;28;20053;-51
2021/11/26 04:49:42;;;;;;;84.07;22.48;;;;;;;-2.40;100.00;94460.72;4998532;28;20174;-48
2021/11/26 04:52:09;;;;;;;75.03;21.27;;;;;;;-1.84;100.00;94459.09;5008797;28;20493;-52
2021/11/26 04:54:37;;;;;;;82.82;21.27;;;;;;;-2.36;100.00;94464.34;5000565;28;20046;-48
2021/11/26 04:57:04;;;;;;;73.57;21.55;;;;;;;-2.01;100.00;94461.47;5010211;28;20085;-48
2021/11/26 04:59:31;;;;;;;78.80;21.58;;;;;;;-1.93;100.00;94460.81;5009251;28;20133;-49
2021/11/26 05:01:58;;;;;;;68.97;18.85;;;;;;;-2.47;100.00;94467.41;4998247;28;20034;-48
2021/11/26 05:04:25;;;;;;;78.18;19.75;;;;;;;-2.50;100.00;94449.44;5006874;28;20041;-48
2021/11/26 05:06:52;;;;;;;80.53;21.42;;;;;;;-2.38;100.00;94449.81;4995347;28;20049;-48
2021/11/26 05:09:19;;;;;;;74.35;20.75;;;;;;;-2.31;100.00;94450.25;5010233;28;20499;-50
2021/11/26 05:11:46;;;;;;;78.70;20.02;;;;;;;-2.18;100.00;94441.59;5007358;28;20041;-51
2021/11/26 05:14:18;;;;;;;65.45;19.67;;;;;;;-2.33;100.00;94427.78;5007776;28;20056;-48
2021/11/26 05:16:45;;;;;;;70.47;18.75;;;;;;;-1.75;100.00;94430.06;5010334;28;20472;-48
2021/11/26 05:19:12;;;;;;;67.28;18.70;;;;;;;-2.20;100.00;94429.69;5002002;28;20074;-48
2021/11/26 05:21:39;;;;;;;59.47;19.38;;;;;;;-2.24;100.00;94426.03;5009225;28;20052;-49
2021/11/26 05:24:06;;;;;;;65.57;18.60;;;;;;;-2.07;100.00;94414.94;5004604;28;20130;-47
2021/11/26 05:26:34;;;;;;;62.47;17.52;;;;;;;-1.82;100.00;94419.81;5003460;28;20057;-48
2021/11/26 05:29:01;;;;;;;52.50;16.48;;;;;;;-1.97;100.00;94423.50;5009675;28;20073;-51
2021/11/26 05:31:29;;;;;;;54.28;16.98;;;;;;;-2.08;100.00;94411.50;5008350;28;20074;-47
2021/11/26 05:33:59;;;;;;;56.80;17.15;;;;;;;-2.21;100.00;94420.16;4999367;28;20054;-49
2021/11/26 05:36:26;;;;;;;57.45;17.35;;;;;;;-2.10;100.00;94420.81;5005401;28;20053;-49
2021/11/26 05:38:53;;;;;;;60.60;17.60;;;;;;;-2.28;100.00;94425.03;5011354;28;20038;-53
2021/11/26 05:41:20;;;;;;;58.15;17.33;;;;;;;-2.26;100.00;94428.97;5007788;28;20046;-48
2021/11/26 05:43:47;;;;;;;51.22;15.95;;;;;;;-2.22;100.00;94429.19;5006023;28;20049;-48
2021/11/26 05:46:15;;;;;;;57.38;17.08;;;;;;;-1.47;100.00;94428.22;5010622;28;20079;-48
2021/11/26 05:48:42;;;;;;;55.22;17.10;;;;;;;-1.70;100.00;94420.13;5012927;28;20056;-47
2021/11/26 05:51:09;;;;;;;51.65;18.15;;;;;;;-2.03;100.00;94415.91;5004026;28;20043;-50
2021/11/26 05:53:36;;;;;;;49.47;15.45;;;;;;;-2.10;100.00;94420.81;5000374;28;20042;-52
2021/11/26 05:56:03;;;;;;;57.33;15.85;;;;;;;-2.24;100.00;94410.94;5007327;28;20057;-50
2021/11/26 05:58:32;;;;;;;51.42;16.13;;;;;;;-2.20;100.00;94425.19;5006863;28;20038;-52
2021/11/26 06:01:00;;;;;;;42.35;15.40;;;;;;;-2.05;100.00;94421.50;5009822;28;20042;-52
2021/11/26 06:03:27;;;;;;;48.70;15.75;;;;;;;-1.75;100.00;94409.63;5012711;28;20180;-52
2021/11/26 06:05:54;;;;;;;48.00;15.25;;;;;;;-2.09;100.00;94417.84;5011207;28;20037;-52
2021/11/26 06:08:21;;;;;;;46.75;15.85;;;;;;;-2.22;100.00;94416.72;5012372;28;20128;-49
2021/11/26 06:10:48;;;;;;;41.38;14.57;;;;;;;-2.21;100.00;94410.38;5002436;28;20042;-53
2021/11/26 06:13:14;;;;;;;48.50;15.07;;;;;;;-2.19;100.00;94413.50;5008744;28;20503;-50
2021/11/26 06:15:41;;;;;;;41.53;13.02;;;;;;;-2.29;100.00;94411.00;5008537;28;20442;-51
2021/11/26 06:18:08;;;;;;;49.13;15.40;;;;;;;-2.26;100.00;94410.44;5012075;28;20144;-47
2021/11/26 06:20:35;;;;;;;50.15;15.77;;;;;;;-2.15;100.00;94395.16;5012288;28;20052;-50
2021/11/26 06:23:02;;;;;;;44.80;15.18;;;;;;;-1.88;100.00;94389.19;5011288;28;20165;-50
2021/11/26 06:25:29;;;;;;;44.42;14.05;;;;;;;-2.12;100.00;94384.78;5002987;28;20484;-52
2021/11/26 06:27:56;;;;;;;44.97;16.13;;;;;;;-2.21;100.00;94385.72;5010620;28;20125;-48
2021/11/26 06:30:24;;;;;;;52.72;18.02;;;;;;;-1.96;100.00;94384.53;5008370;28;20046;-49
2021/11/26 06:32:52;;;;;;;50.72;15.10;;;;;;;-2.00;100.00;94383.53;5005278;28;20037;-50
2021/11/26 06:35:20;;;;;;;52.90;16.30;;;;;;;-2.08;100.00;94384.19;5005750;28;20045;-48
2021/11/26 06:37:49;;;;;;;51.38;15.68;;;;;;;-2.00;100.00;94375.59;5010345;28;20041;-47
2021/11/26 06:40:17;;;;;;;54.40;15.85;;;;;;;-1.88;100.00;94383.88;5010418;28;20047;-52
2021/11/26 06:42:44;;;;;;;52.63;16.52;;;;;;;-1.25;100.00;94377.16;5005924;28;20402;-53
2021/11/26 06:45:11;;;;;;;51.95;15.60;;;;;;;-1.90;100.00;94373.53;5012877;28;20034;-50
2021/11/26 06:47:39;;;;;;;46.30;16.33;;;;;;;-2.15;100.00;94372.09;5005662;28;20392;-49
2021/11/26 06:50:09;;;;;;;51.45;17.05;;;;;;;-2.17;100.00;94374.28;5009451;28;20080;-49
2021/11/26 06:52:36;;;;;;;56.50;18.73;;;;;;;-1.99;100.00;94372.63;5012404;28;20084;-48
2021/11/26 06:55:05;;;;;;;46.88;15.43;;;;;;;-1.68;100.00;94374.78;5007450;28;20454;-51
2021/11/26 06:57:32;;;;;;;50.78;16.38;;;;;;;-1.91;100.00;94366.69;5010037;28;20045;-48
2021/11/26 06:59:59;;;;;;;48.33;15.77;;;;;;;-2.10;100.00;94360.66;5011454;28;20041;-55
2021/11/26 07:02:26;;;;;;;45.88;16.02;;;;;;;-1.86;100.00;94365.00;5000513;28;20125;-51
2021/11/26 07:04:53;;;;;;;47.08;15.55;;;;;;;-1.82;100.00;94368.66;4993250;28;20046;-52
2021/11/26 07:07:20;;;;;;;53.20;16.48;;;;;;;-2.07;100.00;94359.28;5008814;28;20052;-54
2021/11/26 07:09:47;;;;;;;44.05;15.18;;;;;;;-1.62;100.00;94364.88;5010395;28;20045;-49
2021/11/26 07:12:14;;;;;;;48.08;16.08;;;;;;;-1.47;100.00;94359.25;5007075;28;20053;-49
2021/11/26 07:14:44;;;;;;;44.83;15.15;;;;;;;-1.83;100.00;94357.25;5005740;28;20050;-52
2021/11/26 07:17:13;;;;;;;41.97;14.20;;;;;;;-1.51;100.00;94351.09;5003512;28;20479;-54
2021/11/26 07:19:46;;;;;;;40.70;14.23;;;;;;;-1.83;100.00;94353.81;5005909;28;20042;-54
2021/11/26 07:22:13;;;;;;;37.92;12.52;;;;;;;-1.85;100.00;94354.13;5006976;28;20521;-54
2021/11/26 07:24:41;;;;;;;42.47;14.20;;;;;;;-1.98;100.00;94352.22;5006246;28;20491;-50
2021/11/26 07:27:08;;;;;;;44.88;13.82;;;;;;;-2.07;100.00;94357.41;5011217;28;20050;-55
2021/11/26 07:29:36;;;;;;;45.13;16.30;;;;;;;-2.03;100.00;94349.66;5010124;28;20042;-54
2021/11/26 07:32:04;;;;;;;44.67;14.68;;;;;;;-1.88;100.00;94354.72;5007284;28;20484;-53
2021/11/26 07:34:31;;;;;;;45.55;14.45;;;;;;;-2.03;100.00;94354.97;4998482;28;20068;-52
2021/11/26 07:36:58;;;;;;;45.95;14.93;;;;;;;-1.91;100.00;94363.25;5009660;28;20053;-48
2021/11/26 07:39:33;;;;;;;39.55;14.32;;;;;;;-1.95;100.00;94354.28;5009730;28;20052;-53
2021/11/26 07:42:05;;;;;;;43.97;13.90;;;;;;;-1.84;100.00;94361.00;5009461;28;20157;-52
2021/11/26 07:44:35;;;;;;;39.45;14.52;;;;;;;-1.73;100.00;94349.13;5007967;28;20437;-47
2021/11/26 07:47:04;;;;;;;45.25;14.65;;;;;;;-1.74;100.00;94357.38;5009938;28;20065;-50
2021/11/26 07:49:32;;;;;;;41.22;13.05;;;;;;;-1.99;100.00;94348.78;5008410;28;20069;-54
2021/11/26 07:52:01;;;;;;;39.17;13.55;;;;;;;-2.00;100.00;94354.38;5010770;28;20100;-51
2021/11/26 07:54:28;;;;;;;41.05;13.90;;;;;;;-1.95;100.00;94347.16;5004517;28;20057;-54
2021/11/26 07:56:55;;;;;;;46.17;13.55;;;;;;;-1.74;100.00;94360.03;5001045;28;20046;-50
2021/11/26 07:59:24;;;;;;;44.20;14.18;;;;;;;-1.72;100.00;94356.00;5002750;28;20196;-51
2021/11/26 08:01:51;;;;;;;39.15;13.75;;;;;;;-1.63;100.00;94353.44;4999883;28;20132;-53
2021/11/26 08:04:19;;;;;;;45.15;14.68;;;;;;;-1.16;100.00;94350.72;5002284;28;20046;-53
2021/11/26 08:06:47;;;;;;;46.03;14.48;;;;;;;-0.98;97.35;94333.84;5011321;28;20132;-52
2021/11/26 08:09:19;;;;;;;44.40;14.23;;;;;;;-0.84;96.58;94337.28;5011977;28;20515;-56
2021/11/26 08:11:48;;;;;;;43.97;13.57;;;;;;;-0.62;96.52;94327.75;5011062;28;20042;-51
2021/11/26 08:14:16;;;;;;;44.63;15.27;;;;;;;-0.81;96.26;94326.06;5011114;28;20091;-51
2021/11/26 08:16:43;;;;;;;45.67;15.27;;;;;;;-0.64;95.14;94320.09;5002437;28;20053;-51
2021/11/26 08:19:13;;;;;;;49.05;15.52;;;;;;;-1.48;99.26;94307.28;5010583;28;20057;-49
2021/11/26 08:21:41;;;;;;;50.00;15.32;;;;;;;-1.40;99.43;94303.94;5009848;28;20119;-54
2021/11/26 08:24:09;;;;;;;46.00;14.98;;;;;;;-1.31;99.13;94302.16;5009373;28;20103;-51
2021/11/26 08:26:40;;;;;;;38.78;13.45;;;;;;;-1.77;100.00;94281.84;5006014;28;20054;-53
2021/11/26 08:29:08;;;;;;;39.45;12.82;;;;;;;-1.73;100.00;94285.47;5014450;28;20049;-53
2021/11/26 08:31:35;;;;;;;47.83;15.18;;;;;;;-1.71;100.00;94283.34;5017037;28;20045;-49
2021/11/26 08:34:03;;;;;;;36.53;13.23;;;;;;;-1.71;100.00;94278.03;4992465;28;20046;-53
2021/11/26 08:36:30;;;;;;;34.38;12.07;;;;;;;-1.75;100.00;94281.56;5005282;28;20115;-52
2021/11/26 08:38:57;;;;;;;41.28;12.40;;;;;;;-1.40;100.00;94274.75;5011511;28;20073;-49
2021/11/26 08:41:25;;;;;;;43.53;13.30;;;;;;;-1.66;100.00;94270.00;5008516;28;20042;-50
2021/11/26 08:43:53;;;;;;;44.03;14.38;;;;;;;-1.62;100.00;94259.56;5011966;28;20058;-48
2021/11/26 08:46:21;;;;;;;37.30;12.98;;;;;;;-1.77;100.00;94267.81;5006416;28;20050;-52
2021/11/26 08:48:48;;;;;;;43.00;13.93;;;;;;;-1.34;100.00;94270.91;5008688;28;20140;-49
2021/11/26 08:51:16;;;;;;;38.80;13.43;;;;;;;-1.14;100.00;94268.91;5009003;28;20564;-48
2021/11/26 08:53:46;;;;;;;44.83;14.38;;;;;;;-1.04;97.89;94280.13;5006084;28;20049;-48
2021/11/26 08:56:15;;;;;;;37.58;14.73;;;;;;;-1.33;99.32;94285.78;5004593;28;20137;-52
2021/11/26 08:58:45;;;;;;;41.80;13.95;;;;;;;-1.11;98.26;94297.50;5016293;28;20364;-54
2021/11/26 09:01:16;;;;;;;42.08;14.00;;;;;;;-0.74;96.02;94289.25;5015910;28;20041;-48
2021/11/26 09:03:47;;;;;;;47.85;14.43;;;;;;;-1.24;98.62;94289.28;5018847;28;20498;-55
2021/11/26 09:06:19;;;;;;;37.47;14.05;;;;;;;-1.43;98.76;94293.91;5011359;28;20434;-51
2021/11/26 09:08:47;;;;;;;39.33;14.63;;;;;;;-1.43;99.11;94293.91;5007769;28;20065;-50
2021/11/26 09:11:16;;;;;;;44.42;14.65;;;;;;;-1.18;97.44;94290.72;5020726;28;20038;-56
2021/11/26 09:13:43;;;;;;;38.13;14.73;;;;;;;-1.25;98.29;94295.66;5022921;28;20045;-53
2021/11/26 09:16:11;;;;;;;39.40;15.15;;;;;;;-1.28;99.78;94303.44;5009799;28;20125;-52
2021/11/26 09:18:38;;;;;;;44.03;15.50;;;;;;;-1.14;99.04;94296.22;5015474;28;20503;-55
2021/11/26 09:21:05;;;;;;;41.03;14.80;;;;;;;-1.05;97.49;94298.97;5010864;28;20060;-52
2021/11/26 09:23:32;;;;;;;47.53;14.10;;;;;;;-0.70;95.65;94286.78;5005932;28;20053;-55
2021/11/26 09:25:59;;;;;;;37.95;13.32;;;;;;;-0.71;94.30;94280.69;5008443;28;20454;-54
2021/11/26 09:28:26;;;;;;;39.50;12.68;;;;;;;-0.67;93.52;94286.19;5026692;28;20049;-54
2021/11/26 09:30:53;;;;;;;42.35;14.05;;;;;;;-0.62;94.17;94282.59;5012975;28;20132;-52
2021/11/26 09:33:21;;;;;;;42.10;12.93;;;;;;;-0.65;94.01;94280.56;5007323;28;20093;-50
2021/11/26 09:35:49;;;;;;;41.90;13.60;;;;;;;-1.25;97.04;94263.81;5002087;28;20137;-48
2021/11/26 09:38:16;;;;;;;43.45;12.85;;;;;;;-1.12;97.47;94262.22;5011830;28;20407;-49
2021/11/26 09:40:45;;;;;;;35.88;12.63;;;;;;;-1.02;95.97;94261.22;5005084;28;20037;-51
2021/11/26 09:43:13;;;;;;;40.80;13.68;;;;;;;-1.26;98.83;94256.19;5004668;28;20518;-50
2021/11/26 09:45:41;;;;;;;36.28;12.75;;;;;;;-1.39;97.60;94252.47;5013330;28;20427;-49
2021/11/26 09:48:08;;;;;;;44.35;14.57;;;;;;;-0.98;97.14;94243.59;5008751;28;20472;-49
2021/11/26 09:50:37;;;;;;;50.45;15.32;;;;;;;-1.26;97.47;94251.66;5020020;28;20042;-49
2021/11/26 09:53:14;;;;;;;57.20;17.00;;;;;;;-1.81;100.00;94241.13;5023122;28;20522;-50
2021/11/26 09:55:51;;;;;;;49.47;15.50;;;;;;;-1.62;100.00;94224.31;5007219;28;20121;-49
2021/11/26 09:58:19;;;;;;;57.00;16.70;;;;;;;-1.39;100.00;94228.59;5023593;28;20081;-51
2021/11/26 10:00:47;;;;;;;49.88;16.08;;;;;;;-1.76;100.00;94225.09;5023587;28;20132;-52
2021/11/26 10:03:14;;;;;;;45.35;14.98;;;;;;;-1.85;100.00;94212.81;5017244;28;20080;-52
2021/11/26 10:05:44;;;;;;;52.40;15.68;;;;;;;-1.75;100.00;94207.34;5016217;28;20064;-49
2021/11/26 10:08:13;;;;;;;55.45;16.48;;;;;;;-1.58;100.00;94206.72;5014670;28;20045;-51
2021/11/26 10:10:43;;;;;;;48.75;15.15;;;;;;;-1.79;100.00;94207.13;5012352;28;20080;-51
2021/11/26 10:13:12;;;;;;;53.83;15.70;;;;;;;-1.53;100.00;94199.44;5012709;28;20037;-46
2021/11/26 10:15:46;;;;;;;57.25;16.55;;;;;;;-1.32;100.00;94185.75;5004598;28;20060;-54
2021/11/26 10:18:15;;;;;;;50.10;15.95;;;;;;;-1.65;100.00;94189.34;5007296;28;20495;-54
2021/11/26 10:21:03;;;;;;;59.95;16.40;;;;;;;-1.46;100.00;94188.44;5011906;28;20052;-52
2021/11/26 10:23:40;;;;;;;57.72;16.85;;;;;;;-1.65;100.00;94178.75;5012278;28;20514;-47
2021/11/26 10:26:17;;;;;;;60.38;18.63;;;;;;;-1.09;100.00;94173.25;5005564;28;20060;-48
2021/11/26 10:28:49;;;;;;;50.85;16.02;;;;;;;-0.74;97.89;94171.63;5000424;28;20099;-51
2021/11/26 10:31:22;;;;;;;56.88;17.13;;;;;;;-0.33;95.14;94167.91;5023154;28;20053;-49
2021/11/26 10:34:07;;;;;;;50.58;16.38;;;;;;;-0.95;97.21;94158.06;5007095;28;20038;-55
2021/11/26 10:36:48;;;;;;;49.95;16.52;;;;;;;-0.34;96.10;94155.72;5002592;28;20113;-54
2021/11/26 10:39:20;;;;;;;45.90;14.30;;;;;;;-1.09;96.87;94144.06;5018132;28;20050;-55
2021/11/26 10:41:55;;;;;;;44.90;15.25;;;;;;;-0.68;96.77;94145.72;5003589;28;20087;-56
2021/11/26 10:47:22;;;;;;;50.50;15.05;;;;;;;-1.05;98.73;94145.81;5007927;28;20085;-55
2021/11/26 11:00:18;;;;;;;37.10;13.40;;;;;;;-0.79;96.40;94118.63;5012587;28;20373;-54
2021/11/26 11:02:57;;;;;;;39.72;13.43;;;;;;;-0.85;95.11;94111.88;5012678;22;20049;31
2021/11/26 11:05:32;;;;;;;39.47;12.25;;;;;;;-1.08;97.23;94124.41;4955040;28;20118;-47
2021/11/26 11:08:02;;;;;;;38.45;13.23;;;;;;;-0.86;95.63;94113.75;4954488;28;20078;-48
2021/11/26 11:10:30;;;;;;;40.83;13.60;;;;;;;-0.26;93.42;94107.94;4960598;28;20046;-49
2021/11/26 11:13:06;;;;;;;37.95;12.80;;;;;;;-0.50;93.17;94104.88;4952600;28;20047;-47
2021/11/26 11:15:34;;;;;;;39.00;13.57;;;;;;;-0.45;94.07;94103.97;4948772;28;20126;-52
2021/11/26 11:18:01;;;;;;;33.88;13.15;;;;;;;-0.27;92.80;94105.56;4948921;28;20051;-50
2021/11/26 11:20:30;;;;;;;34.75;14.02;;;;;;;-0.25;92.32;94101.50;4958110;28;20061;-47
2021/11/26 11:22:58;;;;;;;41.53;13.50;;;;;;;-0.65;95.63;94091.97;4968828;28;20428;-47
2021/11/26 11:25:28;;;;;;;35.83;12.70;;;;;;;-0.56;94.24;94092.81;4952027;28;20043;-47
2021/11/26 11:27:57;;;;;;;31.88;11.70;;;;;;;-0.90;94.78;94083.59;4963418;28;20046;-46
2021/11/26 11:30:24;;;;;;;30.63;11.85;;;;;;;-0.74;94.87;94084.78;4956196;28;20047;-51